Flight Track Log - Related Links

Times and Time Zones

All times are in EDT time to prevent confusion due to time zone crossing. See the DAL3903 flight status page for this flight to view local times or setup timezone preferences in your user account.

Time Position Orientation Groundspeed Altitude Reporting Facility
EDT Latitude Longitude Course Direction KTS MPH feet Rate Location/Type
Wed 01:56:14 PM 43.4172 -84.0931 160° South 281 323 8,000  Level Cleveland Center
Wed 01:57:16 PM 43.3456 -84.0503 157° South 285 328 9,000 97 Climbing Cleveland Center
Wed 01:58:18 PM 43.2681 -84.0014 155° Southeast 285 328 8,200 -823 Descending Cleveland Center
Wed 01:59:20 PM 43.1989 -83.9586 156° South 278 320 7,300 -968 Descending Cleveland Center
Wed 02:00:00 PM 43.1355 -83.8575 154° Southeast  Level Estimated
Wed 02:00:22 PM 43.1219 -83.9106 155° Southeast 281 323 6,200  Level Cleveland Center
Wed 02:00:41 PM 43.1028 -83.8989 156° South 278 320 6,000 -97 Descending Cleveland Center
Wed 02:01:00 PM 43.0683 -83.8240 160° South  Level FlightAware Approximate
Wed 02:01:24 PM 43.0536 -83.8686 156° South 276 318 6,100  Level Cleveland Center
Wed 02:01:42 PM 43.0289 -83.8533 156° South 278 320 6,000  Descending Cleveland Center
Wed 02:02:26 PM 42.9781 -83.8214 155° Southeast 279 321 6,100  Climbing Cleveland Center
Wed 02:02:43 PM 42.9567 -83.8111 161° South 281 323 6,000 -97 Descending Cleveland Center
Wed 02:03:28 PM 42.9042 -83.7758 154° Southeast 277 319 6,000  Level Cleveland Center
Wed 02:03:45 PM 42.8850 -83.7661 160° South 279 321 6,000  Level Cleveland Center
Wed 02:04:31 PM 42.8344 -83.7333 155° Southeast 279 321 6,000  Level Cleveland Center
Wed 02:04:46 PM 42.8131 -83.7211 157° South 281 323 6,000 -97 Level Cleveland Center
Wed 02:05:33 PM 42.7544 -83.7094 172° South 277 319 5,900  Descending Cleveland Center
Wed 02:05:41 PM 42.7447 -83.7111 187° South 275 316 6,000 97 Climbing Cleveland Center
Wed 02:06:35 PM 42.6769 -83.7067 177° South 274 315 6,000 -98 Level Cleveland Center
Wed 02:06:42 PM 42.6653 -83.7078 184° South 272 313 5,900 -968 Descending Cleveland Center
Wed 02:07:37 PM 42.6014 -83.7033 177° South 276 318 5,000 -871 Descending Cleveland Center
Wed 02:07:44 PM 42.5922 -83.7028 177° South 246 283 5,000  Level Cleveland Center
Wed 02:08:39 PM 42.5392 -83.6997 178° South 247 284 5,000  Level Cleveland Center
Wed 02:08:50 PM 42.5233 -83.7011 184° South 226 260 5,000  Level Cleveland Center
Wed 02:09:41 PM 42.4747 -83.6956 175° South 235 270 5,000  Level Cleveland Center
Wed 02:09:52 PM 42.4547 -83.6939 176° South 238 274 5,000  Level Cleveland Center
Wed 02:10:43 PM 42.4094 -83.6908 177° South 235 270 5,000  Level Cleveland Center
Wed 02:10:48 PM 42.3922 -83.6903 179° South 239 275 5,000  Level Cleveland Center
Wed 02:11:45 PM 42.3336 -83.6850 176° South 233 268 5,000  Level Cleveland Center
Wed 02:11:54 PM 42.3275 -83.6864 190° South 204 235 5,000  Level Cleveland Center
Wed 02:12:56 PM 42.2650 -83.6803 176° South 210 242 5,000  Level Cleveland Center
Wed 02:13:49 PM 42.2194 -83.6758 176° South 212 244 5,000  Level Cleveland Center
Wed 02:13:58 PM 42.2044 -83.6769 183° South 213 245 5,000  Level Cleveland Center
Wed 02:14:51 PM 42.1608 -83.6722 175° South 212 244 5,000  Level Cleveland Center
Wed 02:14:58 PM 42.1464 -83.6714 178° South 209 241 5,000  Level Cleveland Center
Wed 02:15:53 PM 42.1075 -83.6675 176° South 201 231 5,000  Level Cleveland Center
Wed 02:16:00 PM 42.0919 -83.6689 184° South 179 206 5,000  Level Cleveland Center
Wed 02:16:55 PM 42.0450 -83.6678 179° South 189 217 5,000 -90 Level Cleveland Center
Wed 02:17:07 PM 42.0331 -83.6717 194° South 199 229 4,900  Descending Cleveland Center
Wed 02:17:57 PM 41.9944 -83.6772 186° South 186 214 5,000 53 Climbing Cleveland Center
Wed 02:19:00 PM 41.9444 -83.6903 191° South 182 209 5,000  Level Cleveland Center
Wed 02:19:10 PM 41.9325 -83.6964 201° Southwest 186 214 5,000 -97 Level Cleveland Center
Wed 02:20:02 PM 41.9047 -83.6586 135° Southeast 191 220 4,900  Descending Cleveland Center
Wed 02:20:05 PM 41.9031 -83.6444 99° East 191 220 5,000 94 Climbing Cleveland Center
Wed 02:21:06 PM 41.9247 -83.5858 64° Northeast 170 196 5,000  Level Cleveland Center
Wed 02:22:02 PM 41.9622 -83.5603 27° Northeast 161 185 5,000 -100 Level Cleveland Center
Wed 02:22:06 PM 41.9631 -83.5581 63° Northeast 166 191 4,900  Descending Cleveland Center
Wed 02:23:08 PM 42.0036 -83.5283 29° Northeast 165 190 5,000 95 Climbing Cleveland Center
Wed 02:23:09 PM 42.0092 -83.5250 24° Northeast 173 199 5,000 -677 Level Cleveland Center
Wed 02:24:10 PM 42.0450 -83.4975 30° Northeast 170 196 4,300 -806 Descending Cleveland Center
Wed 02:24:16 PM 42.0536 -83.4947 13° North 162 186 4,100 -1,065 Descending Cleveland Center
Wed 02:25:12 PM 42.0914 -83.4664 29° Northeast 169 194 3,200 -864 Descending Cleveland Center
Wed 02:26:14 PM 42.1250 -83.4386 32° Northeast 166 191 2,400 -871 Descending Cleveland Center
Wed 02:27:16 PM 42.1683 -83.4067 29° Northeast 157 181 1,400 -774 Descending Cleveland Center
Wed 02:28:18 PM 42.2042 -83.3811 28° Northeast 144 166 800 -581 Descending Cleveland Center

Login

Don't have an account? Register now (free) for customized features, flight alerts, and more!